sensor_id;sensor_type;location;lat;lon;timestamp;pressure;altitude;pressure_sealevel;temperature;humidity
49585;BME280;35491;49.142;9.210;2022-09-13T20:22:37;99029.19;;;23.03;54.61
49585;BME280;35491;49.142;9.210;2022-09-13T20:23:39;99028.94;;;23.05;54.58
49585;BME280;35491;49.142;9.210;2022-09-13T20:24:43;99016.97;;;23.06;54.88
49585;BME280;35491;49.142;9.210;2022-09-13T20:25:44;99025.13;;;23.06;54.90
49585;BME280;35491;49.142;9.210;2022-09-13T20:26:48;99033.56;;;23.04;54.89
49585;BME280;35491;49.142;9.210;2022-09-13T20:27:51;99029.19;;;23.03;54.61
49585;BME280;35491;49.142;9.210;2022-09-13T20:28:56;99036.78;;;23.01;54.63
49585;BME280;35491;49.142;9.210;2022-09-13T20:29:57;99037.63;;;23.02;54.70
49585;BME280;35491;49.142;9.210;2022-09-13T20:31:02;99040.09;;;23.03;54.59
49585;BME280;35491;49.142;9.210;2022-09-13T20:32:06;99037.06;;;23.00;54.64
49585;BME280;35491;49.142;9.210;2022-09-13T20:33:11;99033.84;;;23.03;54.63
49585;BME280;35491;49.142;9.210;2022-09-13T20:34:13;99034.91;;;23.02;55.03
49585;BME280;35491;49.142;9.210;2022-09-13T20:35:17;99032.94;;;22.97;55.26
49585;BME280;35491;49.142;9.210;2022-09-13T20:36:18;99036.75;;;22.96;54.91
49585;BME280;35491;49.142;9.210;2022-09-13T20:37:29;99033.06;;;22.85;55.43
49585;BME280;35491;49.142;9.210;2022-09-13T20:38:36;99039.81;;;22.83;55.14
49585;BME280;35491;49.142;9.210;2022-09-13T20:39:40;99034.19;;;22.89;55.13
49585;BME280;35491;49.142;9.210;2022-09-13T20:40:41;99038.56;;;22.90;55.01
49585;BME280;35491;49.142;9.210;2022-09-13T20:41:45;99038.56;;;22.90;54.69
49585;BME280;35491;49.142;9.210;2022-09-13T20:42:46;99039.94;;;22.93;54.91
49585;BME280;35491;49.142;9.210;2022-09-13T20:43:50;99039.94;;;22.93;54.58
49585;BME280;35491;49.142;9.210;2022-09-13T20:44:52;99040.53;;;22.95;54.36
49585;BME280;35491;49.142;9.210;2022-09-13T20:45:55;99038.63;;;22.96;54.72
49585;BME280;35491;49.142;9.210;2022-09-13T20:46:57;99041.13;;;22.97;54.29
49585;BME280;35491;49.142;9.210;2022-09-13T20:48:01;99043.56;;;22.99;54.57
49585;BME280;35491;49.142;9.210;2022-09-13T20:49:02;99040.28;;;22.97;54.31
49585;BME280;35491;49.142;9.210;2022-09-13T20:50:08;99045.09;;;22.89;54.51
49585;BME280;35491;49.142;9.210;2022-09-13T20:51:12;99045.09;;;22.89;54.50
49585;BME280;35491;49.142;9.210;2022-09-13T20:52:17;99033.28;;;22.84;54.63
49585;BME280;35491;49.142;9.210;2022-09-13T20:53:20;99039.00;;;22.82;54.57
49585;BME280;35491;49.142;9.210;2022-09-13T20:54:24;99040.88;;;22.82;55.04
49585;BME280;35491;49.142;9.210;2022-09-13T20:55:28;99038.91;;;22.77;54.78
49585;BME280;35491;49.142;9.210;2022-09-13T20:56:29;99034.56;;;22.76;54.69
49585;BME280;35491;49.142;9.210;2022-09-13T20:57:34;99040.00;;;22.76;55.09
49585;BME280;35491;49.142;9.210;2022-09-13T20:58:35;99033.97;;;22.74;54.73
49585;BME280;35491;49.142;9.210;2022-09-13T20:59:39;99027.94;;;22.72;54.93
49585;BME280;35491;49.142;9.210;2022-09-13T21:00:40;99019.72;;;22.67;55.07
49585;BME280;35491;49.142;9.210;2022-09-13T21:01:44;99019.34;;;22.63;55.49
49585;BME280;35491;49.142;9.210;2022-09-13T21:02:48;99018.47;;;22.57;55.84
49585;BME280;35491;49.142;9.210;2022-09-13T21:03:50;99019.56;;;22.56;55.63
49585;BME280;35491;49.142;9.210;2022-09-13T21:04:53;99016.56;;;22.58;55.20
49585;BME280;35491;49.142;9.210;2022-09-13T21:05:55;99011.13;;;22.58;55.25
49585;BME280;35491;49.142;9.210;2022-09-13T21:06:59;99019.28;;;22.58;55.43
49585;BME280;35491;49.142;9.210;2022-09-13T21:08:15;99011.63;;;22.55;55.64
49585;BME280;35491;49.142;9.210;2022-09-13T21:09:34;99018.38;;;22.52;55.58
49585;BME280;35491;49.142;9.210;2022-09-13T21:10:38;99016.25;;;22.54;55.44
49585;BME280;35491;49.142;9.210;2022-09-13T21:11:39;99012.94;;;22.52;55.58
49585;BME280;35491;49.142;9.210;2022-09-13T21:12:43;99018.38;;;22.52;55.52
49585;BME280;35491;49.142;9.210;2022-09-13T21:13:45;99017.56;;;22.52;55.77
49585;BME280;35491;49.142;9.210;2022-09-13T21:14:49;99014.28;;;22.50;55.71
49585;BME280;35491;49.142;9.210;2022-09-13T21:15:50;99020.78;;;22.49;55.62
49585;BME280;35491;49.142;9.210;2022-09-13T21:16:54;99019.13;;;22.48;55.58
49585;BME280;35491;49.142;9.210;2022-09-13T21:17:56;99021.28;;;22.46;55.61
49585;BME280;35491;49.142;9.210;2022-09-13T21:19:01;99019.41;;;22.46;55.83
49585;BME280;35491;49.142;9.210;2022-09-13T21:20:03;99027.56;;;22.46;55.63
49585;BME280;35491;49.142;9.210;2022-09-13T21:21:07;99021.84;;;22.48;55.86
49585;BME280;35491;49.142;9.210;2022-09-13T21:22:08;99025.41;;;22.48;55.64
49585;BME280;35491;49.142;9.210;2022-09-13T21:23:12;99026.50;;;22.47;55.97
49585;BME280;35491;49.142;9.210;2022-09-13T21:24:13;99018.56;;;22.46;56.26
49585;BME280;35491;49.142;9.210;2022-09-13T21:25:21;99012.28;;;22.45;55.85
49585;BME280;35491;49.142;9.210;2022-09-13T21:26:23;99007.66;;;22.46;55.83
49585;BME280;35491;49.142;9.210;2022-09-13T21:27:27;99010.63;;;22.44;56.24
49585;BME280;35491;49.142;9.210;2022-09-13T21:28:28;99002.47;;;22.44;56.20
49585;BME280;35491;49.142;9.210;2022-09-13T21:29:32;99002.47;;;22.44;56.07
49585;BME280;35491;49.142;9.210;2022-09-13T21:30:34;99006.84;;;22.45;55.98
49585;BME280;35491;49.142;9.210;2022-09-13T21:31:38;98995.69;;;22.47;55.84
49585;BME280;35491;49.142;9.210;2022-09-13T21:32:39;98997.59;;;22.46;55.98
49585;BME280;35491;49.142;9.210;2022-09-13T21:33:43;98999.50;;;22.46;55.99
49585;BME280;35491;49.142;9.210;2022-09-13T21:34:44;99004.13;;;22.45;56.07
49585;BME280;35491;49.142;9.210;2022-09-13T21:35:48;99005.78;;;22.46;55.99
49585;BME280;35491;49.142;9.210;2022-09-13T21:36:49;99012.88;;;22.47;56.11
49585;BME280;35491;49.142;9.210;2022-09-13T21:37:54;99006.59;;;22.47;56.03
49585;BME280;35491;49.142;9.210;2022-09-13T21:38:55;99009.09;;;22.48;55.85
49585;BME280;35491;49.142;9.210;2022-09-13T21:39:59;99009.09;;;22.48;55.97
49585;BME280;35491;49.142;9.210;2022-09-13T21:41:05;99006.09;;;22.50;56.04
49585;BME280;35491;49.142;9.210;2022-09-13T21:42:07;99011.81;;;22.48;56.19
49585;BME280;35491;49.142;9.210;2022-09-13T21:43:12;99007.78;;;22.39;57.25
49585;BME280;35491;49.142;9.210;2022-09-13T21:44:14;99008.78;;;22.33;57.12
49585;BME280;35491;49.142;9.210;2022-09-13T21:45:18;99007.28;;;22.25;57.88
49585;BME280;35491;49.142;9.210;2022-09-13T21:46:19;98998.25;;;22.19;58.19
49585;BME280;35491;49.142;9.210;2022-09-13T21:47:23;99016.06;;;22.10;58.62
49585;BME280;35491;49.142;9.210;2022-09-13T21:48:27;99000.69;;;22.04;59.13
49585;BME280;35491;49.142;9.210;2022-09-13T21:49:29;98999.03;;;22.03;58.53
49585;BME280;35491;49.142;9.210;2022-09-13T21:50:33;98999.88;;;22.03;58.77
49585;BME280;35491;49.142;9.210;2022-09-13T21:51:35;98994.44;;;22.03;58.65
49585;BME280;35491;49.142;9.210;2022-09-13T21:52:39;98995.25;;;22.04;58.30
49585;BME280;35491;49.142;9.210;2022-09-13T21:53:41;98995.41;;;21.97;58.94
49585;BME280;35491;49.142;9.210;2022-09-13T21:54:45;98994.59;;;21.96;58.55
49585;BME280;35491;49.142;9.210;2022-09-13T21:55:46;98995.97;;;21.99;58.70
49585;BME280;35491;49.142;9.210;2022-09-13T21:56:53;98991.13;;;22.01;58.27
49585;BME280;35491;49.142;9.210;2022-09-13T21:57:57;98995.25;;;22.04;58.06
49585;BME280;35491;49.142;9.210;2022-09-13T21:58:59;98994.91;;;22.00;58.02
49585;BME280;35491;49.142;9.210;2022-09-13T22:00:04;99003.09;;;22.00;58.40
49585;BME280;35491;49.142;9.210;2022-09-13T22:01:09;99002.81;;;22.02;58.47
49585;BME280;35491;49.142;9.210;2022-09-13T22:02:11;98999.03;;;22.03;58.15
49585;BME280;35491;49.142;9.210;2022-09-13T22:03:15;99001.19;;;22.01;58.24
49585;BME280;35491;49.142;9.210;2022-09-13T22:04:16;99001.53;;;22.04;58.26
49585;BME280;35491;49.142;9.210;2022-09-13T22:05:21;99003.19;;;22.05;58.18
49585;BME280;35491;49.142;9.210;2022-09-13T22:06:23;99005.31;;;22.03;58.57
49585;BME280;35491;49.142;9.210;2022-09-13T22:07:26;99006.97;;;22.04;57.92
49585;BME280;35491;49.142;9.210;2022-09-13T22:08:30;99006.13;;;22.04;58.41
49585;BME280;35491;49.142;9.210;2022-09-13T22:09:32;99012.16;;;22.06;58.03
49585;BME280;35491;49.142;9.210;2022-09-13T22:10:36;99016.53;;;22.07;58.34
49585;BME280;35491;49.142;9.210;2022-09-13T22:11:38;99012.75;;;22.08;58.07
49585;BME280;35491;49.142;9.210;2022-09-13T22:12:45;99005.31;;;22.03;58.71
49585;BME280;35491;49.142;9.210;2022-09-13T22:13:47;98993.59;;;22.03;58.14
49585;BME280;35491;49.142;9.210;2022-09-13T22:14:50;99002.81;;;22.02;58.32
49585;BME280;35491;49.142;9.210;2022-09-13T22:15:51;98995.25;;;22.04;58.48
49585;BME280;35491;49.142;9.210;2022-09-13T22:16:55;99001.75;;;22.03;58.25
49585;BME280;35491;49.142;9.210;2022-09-13T22:17:56;99006.13;;;22.04;58.12
49585;BME280;35491;49.142;9.210;2022-09-13T22:19:01;98996.91;;;22.05;58.40
49585;BME280;35491;49.142;9.210;2022-09-13T22:20:02;99004.81;;;22.06;57.94
49585;BME280;35491;49.142;9.210;2022-09-13T22:21:07;98994.78;;;22.07;57.92
49585;BME280;35491;49.142;9.210;2022-09-13T22:22:08;98987.94;;;22.04;58.58
49585;BME280;35491;49.142;9.210;2022-09-13T22:23:12;98988.16;;;22.03;58.37
49585;BME280;35491;49.142;9.210;2022-09-13T22:24:13;98981.91;;;22.02;58.43
49585;BME280;35491;49.142;9.210;2022-09-13T22:25:18;98981.56;;;21.99;57.96
49585;BME280;35491;49.142;9.210;2022-09-13T22:26:22;98981.25;;;21.95;57.80
49585;BME280;35491;49.142;9.210;2022-09-13T22:27:26;98977.94;;;21.93;57.54
49585;BME280;35491;49.142;9.210;2022-09-13T22:28:30;98976.63;;;21.95;57.73
49585;BME280;35491;49.142;9.210;2022-09-13T22:29:34;98979.25;;;21.90;56.85
49585;BME280;35491;49.142;9.210;2022-09-13T22:30:35;98977.59;;;21.89;56.48
49585;BME280;35491;49.142;9.210;2022-09-13T22:31:39;98969.34;;;21.84;56.63
49585;BME280;35491;49.142;9.210;2022-09-13T22:32:40;98963.09;;;21.84;56.20
49585;BME280;35491;49.142;9.210;2022-09-13T22:33:44;98965.22;;;21.81;56.25
49585;BME280;35491;49.142;9.210;2022-09-13T22:34:45;98966.06;;;21.82;56.81
49585;BME280;35491;49.142;9.210;2022-09-13T22:35:59;98961.09;;;21.79;56.86
49585;BME280;35491;49.142;9.210;2022-09-13T22:37:00;98967.69;;;21.83;57.05
49585;BME280;35491;49.142;9.210;2022-09-13T22:38:04;98962.03;;;21.85;56.96
49585;BME280;35491;49.142;9.210;2022-09-13T22:39:05;98957.66;;;21.84;57.31
49585;BME280;35491;49.142;9.210;2022-09-13T22:40:09;98958.97;;;21.81;57.04
49585;BME280;35491;49.142;9.210;2022-09-13T22:41:12;98954.00;;;21.78;57.33
49585;BME280;35491;49.142;9.210;2022-09-13T22:42:15;98944.44;;;21.75;57.35
49585;BME280;35491;49.142;9.210;2022-09-13T22:43:17;98946.09;;;21.76;57.75
49585;BME280;35491;49.142;9.210;2022-09-13T22:44:23;98944.44;;;21.75;57.51
49585;BME280;35491;49.142;9.210;2022-09-13T22:45:27;98943.59;;;21.75;57.74
49585;BME280;35491;49.142;9.210;2022-09-13T22:46:29;98946.91;;;21.77;57.25
49585;BME280;35491;49.142;9.210;2022-09-13T22:47:33;98947.72;;;21.77;57.48
49585;BME280;35491;49.142;9.210;2022-09-13T22:48:34;98941.47;;;21.77;57.71
49585;BME280;35491;49.142;9.210;2022-09-13T22:49:39;98936.53;;;21.74;57.63
49585;BME280;35491;49.142;9.210;2022-09-13T22:50:40;98931.59;;;21.71;57.70
49585;BME280;35491;49.142;9.210;2022-09-13T22:51:44;98941.63;;;21.70;57.71
49585;BME280;35491;49.142;9.210;2022-09-13T22:52:45;98936.44;;;21.69;58.00
49585;BME280;35491;49.142;9.210;2022-09-13T22:53:50;98934.19;;;21.65;58.14
49585;BME280;35491;49.142;9.210;2022-09-13T22:54:51;98939.66;;;21.65;58.08
49585;BME280;35491;49.142;9.210;2022-09-13T22:55:55;98934.19;;;21.65;58.18
49585;BME280;35491;49.142;9.210;2022-09-13T22:57:01;98935.84;;;21.66;57.99
49585;BME280;35491;49.142;9.210;2022-09-13T22:58:05;98931.75;;;21.64;57.84
49585;BME280;35491;49.142;9.210;2022-09-13T22:59:06;98924.97;;;21.66;57.97
49585;BME280;35491;49.142;9.210;2022-09-13T23:00:14;98912.13;;;21.62;58.02
49585;BME280;35491;49.142;9.210;2022-09-13T23:01:15;98918.03;;;21.59;58.00
49585;BME280;35491;49.142;9.210;2022-09-13T23:02:19;98921.81;;;21.58;58.32
49585;BME280;35491;49.142;9.210;2022-09-13T23:03:20;98918.25;;;21.57;57.89
49585;BME280;35491;49.142;9.210;2022-09-13T23:04:24;98914.94;;;21.55;57.90
49585;BME280;35491;49.142;9.210;2022-09-13T23:05:25;98914.50;;;21.58;57.48
49585;BME280;35491;49.142;9.210;2022-09-13T23:06:29;98923.47;;;21.59;57.87
49585;BME280;35491;49.142;9.210;2022-09-13T23:07:30;98918.63;;;21.61;57.48
49585;BME280;35491;49.142;9.210;2022-09-13T23:08:34;98919.47;;;21.61;58.08
49585;BME280;35491;49.142;9.210;2022-09-13T23:09:36;98931.16;;;21.62;57.70
49585;BME280;35491;49.142;9.210;2022-09-13T23:10:40;98921.34;;;21.61;56.98
49585;BME280;35491;49.142;9.210;2022-09-13T23:11:41;98915.09;;;21.60;56.38
49585;BME280;35491;49.142;9.210;2022-09-13T23:12:45;98920.03;;;21.63;56.01
49585;BME280;35491;49.142;9.210;2022-09-13T23:13:47;98923.31;;;21.65;56.26
49585;BME280;35491;49.142;9.210;2022-09-13T23:14:51;98924.97;;;21.66;55.50
49585;BME280;35491;49.142;9.210;2022-09-13T23:15:54;98923.09;;;21.67;54.86
49585;BME280;35491;49.142;9.210;2022-09-13T23:16:58;98925.09;;;21.72;55.22
49585;BME280;35491;49.142;9.210;2022-09-13T23:17:59;98915.03;;;21.72;54.85
49585;BME280;35491;49.142;9.210;2022-09-13T23:19:03;98919.97;;;21.75;54.63
49585;BME280;35491;49.142;9.210;2022-09-13T23:20:04;98925.16;;;21.77;54.49
49585;BME280;35491;49.142;9.210;2022-09-13T23:21:11;98916.53;;;21.80;54.61
49585;BME280;35491;49.142;9.210;2022-09-13T23:22:12;98918.72;;;21.83;54.58
49585;BME280;35491;49.142;9.210;2022-09-13T23:23:16;98918.72;;;21.83;54.21
49585;BME280;35491;49.142;9.210;2022-09-13T23:24:17;98918.72;;;21.83;54.29
49585;BME280;35491;49.142;9.210;2022-09-13T23:25:21;98917.66;;;21.84;54.56
49585;BME280;35491;49.142;9.210;2022-09-13T23:26:22;98921.22;;;21.85;54.07
49585;BME280;35491;49.142;9.210;2022-09-13T23:27:26;98914.72;;;21.86;54.57
49585;BME280;35491;49.142;9.210;2022-09-13T23:28:27;98923.69;;;21.86;54.62
49585;BME280;35491;49.142;9.210;2022-09-13T23:29:31;98915.78;;;21.85;54.52
49585;BME280;35491;49.142;9.210;2022-09-13T23:30:35;98913.66;;;21.87;54.34
49585;BME280;35491;49.142;9.210;2022-09-13T23:31:39;98916.59;;;21.85;54.12
49585;BME280;35491;49.142;9.210;2022-09-13T23:32:45;98916.59;;;21.85;54.28
49585;BME280;35491;49.142;9.210;2022-09-13T23:33:47;98908.44;;;21.85;53.96
49585;BME280;35491;49.142;9.210;2022-09-13T23:34:51;98907.38;;;21.86;53.91
49585;BME280;35491;49.142;9.210;2022-09-13T23:35:55;98907.94;;;21.88;54.17
49585;BME280;35491;49.142;9.210;2022-09-13T23:36:59;98900.38;;;21.90;54.25
49585;BME280;35491;49.142;9.210;2022-09-13T23:38:03;98908.53;;;21.90;54.21
49585;BME280;35491;49.142;9.210;2022-09-13T23:39:06;98908.84;;;21.94;54.33
49585;BME280;35491;49.142;9.210;2022-09-13T23:40:10;98910.00;;;21.98;54.30
49585;BME280;35491;49.142;9.210;2022-09-13T23:41:11;98907.59;;;22.02;53.86
49585;BME280;35491;49.142;9.210;2022-09-13T23:42:15;98904.06;;;22.01;53.95
49585;BME280;35491;49.142;9.210;2022-09-13T23:43:17;98906.53;;;22.03;53.83
49585;BME280;35491;49.142;9.210;2022-09-13T23:44:21;98912.81;;;22.03;53.86
49585;BME280;35491;49.142;9.210;2022-09-13T23:45:22;98910.09;;;22.03;53.91
49585;BME280;35491;49.142;9.210;2022-09-13T23:46:25;98913.41;;;22.05;54.00
49585;BME280;35491;49.142;9.210;2022-09-13T23:47:29;98910.41;;;22.07;54.75
49585;BME280;35491;49.142;9.210;2022-09-13T23:48:33;98915.00;;;22.06;55.52
49585;BME280;35491;49.142;9.210;2022-09-13T23:49:34;98920.97;;;22.03;55.49
49585;BME280;35491;49.142;9.210;2022-09-13T23:50:38;98913.63;;;22.04;55.78
49585;BME280;35491;49.142;9.210;2022-09-13T23:51:39;98916.34;;;22.04;55.47
49585;BME280;35491;49.142;9.210;2022-09-13T23:52:43;98909.84;;;22.05;56.27
49585;BME280;35491;49.142;9.210;2022-09-13T23:53:44;98908.19;;;22.04;56.15
49585;BME280;35491;49.142;9.210;2022-09-13T23:54:49;98913.63;;;22.04;57.56
49585;BME280;35491;49.142;9.210;2022-09-13T23:55:50;98916.59;;;22.02;57.23
49585;BME280;35491;49.142;9.210;2022-09-13T23:56:54;98911.97;;;22.03;57.13
49585;BME280;35491;49.142;9.210;2022-09-13T23:57:55;98913.03;;;22.02;57.05
49585;BME280;35491;49.142;9.210;2022-09-13T23:59:00;98912.81;;;22.03;57.21
